AirNav   Air Wisconsin Up To $57,000 Bonus
 
 1138 users online  

22TX South Austin Medical Center Heliport
Austin, Texas, USA

GOING TO AUSTIN?


FAA INFORMATION EFFECTIVE 05 DECEMBER 2019

Location

FAA Identifier: 22TX
Lat/Long: 30-13-32.0000N 097-46-26.0000W
30-13.533333N 097-46.433333W
30.2255556,-97.7738889
(estimated)
Elevation: 687 ft. / 209 m (estimated)
Time zone: UTC -6 (UTC -5 during Daylight Saving Time)
Zip code: 78704

Heliport Operations

Heliport use: Private use. Permission required prior to landing
Activation date: 11/2007
Control tower: no
ARTCC: HOUSTON CENTER
FSS: SAN ANGELO FLIGHT SERVICE STATION
Attendance: UNTANDD
Wind indicator: yes
Segmented circle: no
Lights: ACTIVATE: PERIMETER LGTS H1 - 123.05.

Heliport Communications

WX ASOS at AUS (6 nm E): PHONE 512-369-7881
WX AWOS-3 at EDC (15 nm NE): 118.825 (512-616-2967)
WX ASOS at RYW (19 nm NW): 119.375 (512-267-1365)

Nearby radio navigation aids

VOR radial/distance  VOR name  Freq  Var
CWKr228/15.6CENTEX VORTAC112.8006E

 
NDB name  Hdg/Dist  Freq  Var  ID
CREED324/9.625504EBS -... ...

Heliport Services

Runway Information

Helipad H1

Dimensions: 40 x 40 ft. / 12 x 12 m
Surface: concrete
Runway edge lights: PERI
Traffic pattern: leftleft

Heliport Ownership and Management from official FAA records

Ownership: Privately-owned
Owner: SOUTH AUSTIN HOSPITAL
901 W. BEN WHITE BLVD
AUSTIN, TX 78704
Phone 512-448-7190
Manager: MICHAEL SANDERS
901 W. BEN WHITE BLVD
AUSTIN, TX 78704
Phone (512) 816-7384

Additional Remarks

385 FT PLINE 385 FT WEST.
FOR CD CTC AUSTIN APCH AT 512-269-7865.

Instrument Procedures

There are no published instrument procedures at 22TX.

Some nearby airports with instrument procedures:

KAUS - Austin-Bergstrom International Airport (6 nm E)
3R9 - Lakeway Airpark (14 nm NW)
KEDC - Austin Executive Airport (15 nm NE)
KRYW - Lago Vista TX - Rusty Allen Airport (19 nm NW)
KHYI - San Marcos Regional Airport (20 nm S)
 
Loc | Ops | Rwys | IFR | FBO | Links
Com | Nav | Svcs | Stats | Notes
Aerial photo
No photo
 
Sectional chart

 
Airport distance calculator
Flying to South Austin Medical Center Heliport? Find the distance to fly.

From to 22TX

Sunrise and sunset
Times for 05-Dec-2019
 Local
(UTC-6)
 Zulu
(UTC)
Morning civil twilight06:4812:48
Sunrise07:1413:14
Sunset17:2923:29
Evening civil twilight17:5623:56

Current date and time
Zulu (UTC)  06-Dec-2019 03:32:54
Local (UTC-6)  05-Dec-2019 21:32:54
 
METAR
KAUS 
5nm NE 
060253Z 19003KT 9SM BKN250 16/14 A2998 RMK AO2 SLP152 T01560144 53014
KATT 
6nm NE 
060251Z AUTO 00000KT 10SM CLR 18/14 A2999 RMK AO2 SLP152 T01780144 51013 $
KEDC 
15nm NE 
060315Z AUTO 21006KT 9SM CLR 17/15 A2999 RMK AO2
KRYW 
19nm NW 
060315Z AUTO 21006KT 10SM CLR 19/15 A3000 RMK AO2 T01880153
TAF
KAUS 
5nm NE 
051907Z 0519/0624 19012KT P6SM OVC025 FM052000 19012KT P6SM BKN250 FM052200 19007KT P6SM BKN250 FM060500 20005KT 5SM BR SCT004 BKN250 FM061000 30007KT P6SM SCT250 FM061300 34012KT P6SM FEW250 FM062200 34010KT P6SM FEW250
NOTAMs
Click for the latest NOTAMs
NOTAMs are issued by the DoD/FAA and will open in a separate window not controlled by AirNav.

 

 
 

Would you like to see your business listed on this page?

 If your business provides an interesting product or service to pilots, flight crews, aircraft, or users of the South Austin Medical Center Heliport, you should consider listing it here.  To start the listing process, click on the button below
 
Add a business
 

Other Pages about South Austin Medical Center Heliport

Update a link
 
Copyright © AirNav, LLC. All rights reserved. Privacy Policy  Contact